sensor_id;sensor_type;location;lat;lon;timestamp;temperature;humidity
14122;DHT22;7139;48.114;11.442;2022-09-02T00:01:11;13.40;99.90
14122;DHT22;7139;48.114;11.442;2022-09-02T00:03:38;13.40;99.90
14122;DHT22;7139;48.114;11.442;2022-09-02T00:06:05;13.40;99.90
14122;DHT22;7139;48.114;11.442;2022-09-02T00:08:33;13.40;99.90
14122;DHT22;7139;48.114;11.442;2022-09-02T00:11:01;13.30;99.90
14122;DHT22;7139;48.114;11.442;2022-09-02T00:13:31;13.30;99.90
14122;DHT22;7139;48.114;11.442;2022-09-02T00:15:58;13.30;99.90
14122;DHT22;7139;48.114;11.442;2022-09-02T00:18:25;13.30;99.90
14122;DHT22;7139;48.114;11.442;2022-09-02T00:20:52;13.30;99.90
14122;DHT22;7139;48.114;11.442;2022-09-02T00:23:19;13.20;99.90
14122;DHT22;7139;48.114;11.442;2022-09-02T00:25:47;13.10;99.90
14122;DHT22;7139;48.114;11.442;2022-09-02T00:28:14;13.20;99.90
14122;DHT22;7139;48.114;11.442;2022-09-02T00:30:43;13.20;99.90
14122;DHT22;7139;48.114;11.442;2022-09-02T00:33:13;13.20;99.90
14122;DHT22;7139;48.114;11.442;2022-09-02T00:35:41;13.10;99.90
14122;DHT22;7139;48.114;11.442;2022-09-02T00:38:08;13.10;99.90
14122;DHT22;7139;48.114;11.442;2022-09-02T00:40:35;13.00;99.90
14122;DHT22;7139;48.114;11.442;2022-09-02T00:43:06;13.10;99.90
14122;DHT22;7139;48.114;11.442;2022-09-02T00:45:33;13.00;99.90
14122;DHT22;7139;48.114;11.442;2022-09-02T00:48:00;13.00;99.90
14122;DHT22;7139;48.114;11.442;2022-09-02T00:50:29;13.00;99.90
14122;DHT22;7139;48.114;11.442;2022-09-02T00:52:59;13.00;99.90
14122;DHT22;7139;48.114;11.442;2022-09-02T00:55:30;13.00;99.90
14122;DHT22;7139;48.114;11.442;2022-09-02T00:58:00;12.90;99.90
14122;DHT22;7139;48.114;11.442;2022-09-02T01:00:33;12.90;99.90
14122;DHT22;7139;48.114;11.442;2022-09-02T01:03:06;12.80;99.90
14122;DHT22;7139;48.114;11.442;2022-09-02T01:05:37;12.80;99.90
14122;DHT22;7139;48.114;11.442;2022-09-02T01:08:08;12.80;99.90
14122;DHT22;7139;48.114;11.442;2022-09-02T01:10:36;12.80;99.90
14122;DHT22;7139;48.114;11.442;2022-09-02T01:13:06;12.80;99.90
14122;DHT22;7139;48.114;11.442;2022-09-02T01:15:36;12.80;99.90
14122;DHT22;7139;48.114;11.442;2022-09-02T01:18:04;12.70;99.90
14122;DHT22;7139;48.114;11.442;2022-09-02T01:20:32;13.40;99.90
14122;DHT22;7139;48.114;11.442;2022-09-02T01:23:00;12.70;99.90
14122;DHT22;7139;48.114;11.442;2022-09-02T01:25:29;12.70;99.90
14122;DHT22;7139;48.114;11.442;2022-09-02T01:27:59;12.60;99.90
14122;DHT22;7139;48.114;11.442;2022-09-02T01:30:26;12.60;99.90
14122;DHT22;7139;48.114;11.442;2022-09-02T01:32:53;12.60;99.90
14122;DHT22;7139;48.114;11.442;2022-09-02T01:35:21;12.60;99.90
14122;DHT22;7139;48.114;11.442;2022-09-02T01:37:48;12.60;99.90
14122;DHT22;7139;48.114;11.442;2022-09-02T01:40:17;12.60;99.90
14122;DHT22;7139;48.114;11.442;2022-09-02T01:42:46;12.70;99.90
14122;DHT22;7139;48.114;11.442;2022-09-02T01:45:13;12.60;99.90
14122;DHT22;7139;48.114;11.442;2022-09-02T01:47:41;12.60;99.90
14122;DHT22;7139;48.114;11.442;2022-09-02T01:50:08;12.60;99.90
14122;DHT22;7139;48.114;11.442;2022-09-02T01:52:35;12.60;99.90
14122;DHT22;7139;48.114;11.442;2022-09-02T01:55:04;12.60;99.90
14122;DHT22;7139;48.114;11.442;2022-09-02T01:57:32;12.60;99.90
14122;DHT22;7139;48.114;11.442;2022-09-02T01:59:59;12.60;99.90
14122;DHT22;7139;48.114;11.442;2022-09-02T02:02:27;12.60;99.90
14122;DHT22;7139;48.114;11.442;2022-09-02T02:04:54;12.60;99.90
14122;DHT22;7139;48.114;11.442;2022-09-02T02:07:21;12.60;99.90
14122;DHT22;7139;48.114;11.442;2022-09-02T02:09:50;12.50;99.90
14122;DHT22;7139;48.114;11.442;2022-09-02T02:12:17;12.50;99.90
14122;DHT22;7139;48.114;11.442;2022-09-02T02:14:46;12.50;99.90
14122;DHT22;7139;48.114;11.442;2022-09-02T02:17:12;12.40;99.90
14122;DHT22;7139;48.114;11.442;2022-09-02T02:19:39;12.50;99.90
14122;DHT22;7139;48.114;11.442;2022-09-02T02:22:06;12.40;99.90
14122;DHT22;7139;48.114;11.442;2022-09-02T02:24:33;12.40;99.90
14122;DHT22;7139;48.114;11.442;2022-09-02T02:27:00;12.40;99.90
14122;DHT22;7139;48.114;11.442;2022-09-02T02:29:27;12.30;99.90
14122;DHT22;7139;48.114;11.442;2022-09-02T02:31:55;12.30;99.90
14122;DHT22;7139;48.114;11.442;2022-09-02T02:34:22;12.30;99.90
14122;DHT22;7139;48.114;11.442;2022-09-02T02:36:49;12.20;99.90
14122;DHT22;7139;48.114;11.442;2022-09-02T02:39:16;12.20;99.90
14122;DHT22;7139;48.114;11.442;2022-09-02T02:41:42;12.20;99.90
14122;DHT22;7139;48.114;11.442;2022-09-02T02:44:11;12.20;99.90
14122;DHT22;7139;48.114;11.442;2022-09-02T02:46:37;12.30;99.90
14122;DHT22;7139;48.114;11.442;2022-09-02T02:49:05;12.30;99.90
14122;DHT22;7139;48.114;11.442;2022-09-02T02:51:33;12.20;99.90
14122;DHT22;7139;48.114;11.442;2022-09-02T02:54:00;12.20;99.90
14122;DHT22;7139;48.114;11.442;2022-09-02T02:56:27;12.20;99.90
14122;DHT22;7139;48.114;11.442;2022-09-02T02:58:55;12.20;99.90
14122;DHT22;7139;48.114;11.442;2022-09-02T03:01:22;12.10;99.90
14122;DHT22;7139;48.114;11.442;2022-09-02T03:03:49;12.20;99.90
14122;DHT22;7139;48.114;11.442;2022-09-02T03:06:18;12.20;99.90
14122;DHT22;7139;48.114;11.442;2022-09-02T03:08:44;12.10;99.90
14122;DHT22;7139;48.114;11.442;2022-09-02T03:11:13;12.20;99.90
14122;DHT22;7139;48.114;11.442;2022-09-02T03:13:40;12.20;99.90
14122;DHT22;7139;48.114;11.442;2022-09-02T03:16:07;12.20;99.90
14122;DHT22;7139;48.114;11.442;2022-09-02T03:18:34;12.10;99.90
14122;DHT22;7139;48.114;11.442;2022-09-02T03:21:04;12.10;99.90
14122;DHT22;7139;48.114;11.442;2022-09-02T03:23:33;12.10;99.90
14122;DHT22;7139;48.114;11.442;2022-09-02T03:25:59;12.50;99.90
14122;DHT22;7139;48.114;11.442;2022-09-02T03:28:26;12.10;99.90
14122;DHT22;7139;48.114;11.442;2022-09-02T03:30:53;12.00;99.90
14122;DHT22;7139;48.114;11.442;2022-09-02T03:33:20;12.00;99.90
14122;DHT22;7139;48.114;11.442;2022-09-02T03:35:46;12.00;99.90
14122;DHT22;7139;48.114;11.442;2022-09-02T03:38:13;12.00;99.90
14122;DHT22;7139;48.114;11.442;2022-09-02T03:40:41;11.90;99.90
14122;DHT22;7139;48.114;11.442;2022-09-02T03:43:08;12.00;99.90
14122;DHT22;7139;48.114;11.442;2022-09-02T03:45:35;12.00;99.90
14122;DHT22;7139;48.114;11.442;2022-09-02T03:48:03;12.00;99.90
14122;DHT22;7139;48.114;11.442;2022-09-02T03:50:33;12.00;99.90
14122;DHT22;7139;48.114;11.442;2022-09-02T03:53:01;12.00;99.90
14122;DHT22;7139;48.114;11.442;2022-09-02T03:55:28;12.00;99.90
14122;DHT22;7139;48.114;11.442;2022-09-02T03:57:56;11.90;99.90
14122;DHT22;7139;48.114;11.442;2022-09-02T04:00:24;11.90;99.90
14122;DHT22;7139;48.114;11.442;2022-09-02T04:02:53;11.80;99.90
14122;DHT22;7139;48.114;11.442;2022-09-02T04:05:21;11.90;99.90
14122;DHT22;7139;48.114;11.442;2022-09-02T04:07:49;11.90;99.90
14122;DHT22;7139;48.114;11.442;2022-09-02T04:10:18;11.90;99.90
14122;DHT22;7139;48.114;11.442;2022-09-02T04:12:45;11.80;99.90
14122;DHT22;7139;48.114;11.442;2022-09-02T04:15:13;11.80;99.90
14122;DHT22;7139;48.114;11.442;2022-09-02T04:17:41;11.80;99.90
14122;DHT22;7139;48.114;11.442;2022-09-02T04:20:10;11.80;99.90
14122;DHT22;7139;48.114;11.442;2022-09-02T04:22:38;11.80;99.90
14122;DHT22;7139;48.114;11.442;2022-09-02T04:25:06;11.70;99.90
14122;DHT22;7139;48.114;11.442;2022-09-02T04:27:34;11.70;99.90
14122;DHT22;7139;48.114;11.442;2022-09-02T04:30:01;11.70;99.90
14122;DHT22;7139;48.114;11.442;2022-09-02T04:32:30;11.60;99.90
14122;DHT22;7139;48.114;11.442;2022-09-02T04:34:57;11.70;99.90
14122;DHT22;7139;48.114;11.442;2022-09-02T04:37:23;11.60;99.90
14122;DHT22;7139;48.114;11.442;2022-09-02T04:39:51;11.60;99.90
14122;DHT22;7139;48.114;11.442;2022-09-02T04:42:18;11.60;99.90
14122;DHT22;7139;48.114;11.442;2022-09-02T04:44:45;11.60;99.90
14122;DHT22;7139;48.114;11.442;2022-09-02T04:47:12;11.50;99.90
14122;DHT22;7139;48.114;11.442;2022-09-02T04:49:40;11.50;99.90
14122;DHT22;7139;48.114;11.442;2022-09-02T04:52:07;11.40;99.90
14122;DHT22;7139;48.114;11.442;2022-09-02T04:54:35;11.50;99.90
14122;DHT22;7139;48.114;11.442;2022-09-02T04:57:02;10.60;99.90
14122;DHT22;7139;48.114;11.442;2022-09-02T04:59:29;11.40;99.90
14122;DHT22;7139;48.114;11.442;2022-09-02T05:01:55;11.60;99.90
14122;DHT22;7139;48.114;11.442;2022-09-02T05:04:22;11.40;99.90
14122;DHT22;7139;48.114;11.442;2022-09-02T05:06:50;11.50;99.90
14122;DHT22;7139;48.114;11.442;2022-09-02T05:09:19;11.30;99.90
14122;DHT22;7139;48.114;11.442;2022-09-02T05:11:46;11.40;99.90
14122;DHT22;7139;48.114;11.442;2022-09-02T05:14:13;9.90;99.90
14122;DHT22;7139;48.114;11.442;2022-09-02T05:16:41;11.80;99.90
14122;DHT22;7139;48.114;11.442;2022-09-02T05:19:10;11.30;99.90
14122;DHT22;7139;48.114;11.442;2022-09-02T05:21:39;11.50;99.90
14122;DHT22;7139;48.114;11.442;2022-09-02T05:24:07;11.40;99.90
14122;DHT22;7139;48.114;11.442;2022-09-02T05:26:34;11.50;99.90
14122;DHT22;7139;48.114;11.442;2022-09-02T05:29:02;11.40;99.90
14122;DHT22;7139;48.114;11.442;2022-09-02T05:31:31;11.50;99.90
14122;DHT22;7139;48.114;11.442;2022-09-02T05:33:58;11.60;99.90
14122;DHT22;7139;48.114;11.442;2022-09-02T05:36:25;11.60;99.90
14122;DHT22;7139;48.114;11.442;2022-09-02T05:38:52;11.60;99.90
14122;DHT22;7139;48.114;11.442;2022-09-02T05:41:22;11.60;99.90
14122;DHT22;7139;48.114;11.442;2022-09-02T05:43:50;11.60;99.90
14122;DHT22;7139;48.114;11.442;2022-09-02T05:46:20;12.00;99.90
14122;DHT22;7139;48.114;11.442;2022-09-02T05:48:49;11.70;99.90
14122;DHT22;7139;48.114;11.442;2022-09-02T05:51:38;11.90;99.90
14122;DHT22;7139;48.114;11.442;2022-09-02T05:54:07;12.00;99.90
14122;DHT22;7139;48.114;11.442;2022-09-02T05:56:36;11.90;99.90
14122;DHT22;7139;48.114;11.442;2022-09-02T05:59:03;12.00;99.90
14122;DHT22;7139;48.114;11.442;2022-09-02T06:01:32;12.10;99.90
14122;DHT22;7139;48.114;11.442;2022-09-02T06:03:59;12.60;99.90
14122;DHT22;7139;48.114;11.442;2022-09-02T06:06:27;12.10;99.90
14122;DHT22;7139;48.114;11.442;2022-09-02T06:08:53;12.20;99.90
14122;DHT22;7139;48.114;11.442;2022-09-02T06:11:20;12.10;99.90
14122;DHT22;7139;48.114;11.442;2022-09-02T06:13:48;12.40;99.90
14122;DHT22;7139;48.114;11.442;2022-09-02T06:16:18;12.30;99.90
14122;DHT22;7139;48.114;11.442;2022-09-02T06:18:46;12.30;99.90
14122;DHT22;7139;48.114;11.442;2022-09-02T06:21:14;12.70;99.90
14122;DHT22;7139;48.114;11.442;2022-09-02T06:23:41;12.60;99.90
14122;DHT22;7139;48.114;11.442;2022-09-02T06:26:09;12.40;99.90
14122;DHT22;7139;48.114;11.442;2022-09-02T06:28:36;12.40;99.90
14122;DHT22;7139;48.114;11.442;2022-09-02T06:31:09;12.80;99.90
14122;DHT22;7139;48.114;11.442;2022-09-02T06:33:37;12.50;99.90
14122;DHT22;7139;48.114;11.442;2022-09-02T06:36:05;12.60;99.90
14122;DHT22;7139;48.114;11.442;2022-09-02T06:38:35;12.60;99.90
14122;DHT22;7139;48.114;11.442;2022-09-02T06:41:03;12.70;99.90
14122;DHT22;7139;48.114;11.442;2022-09-02T06:43:29;12.70;99.90
14122;DHT22;7139;48.114;11.442;2022-09-02T06:45:56;12.20;99.90
14122;DHT22;7139;48.114;11.442;2022-09-02T06:48:24;12.70;99.90
14122;DHT22;7139;48.114;11.442;2022-09-02T06:50:51;12.80;99.90
14122;DHT22;7139;48.114;11.442;2022-09-02T06:53:19;12.90;99.90
14122;DHT22;7139;48.114;11.442;2022-09-02T06:55:46;12.90;99.90
14122;DHT22;7139;48.114;11.442;2022-09-02T06:58:13;12.90;99.90
14122;DHT22;7139;48.114;11.442;2022-09-02T07:00:41;13.00;99.90
14122;DHT22;7139;48.114;11.442;2022-09-02T07:03:08;13.50;99.90
14122;DHT22;7139;48.114;11.442;2022-09-02T07:06:03;13.10;99.90
14122;DHT22;7139;48.114;11.442;2022-09-02T07:08:34;13.20;99.90
14122;DHT22;7139;48.114;11.442;2022-09-02T07:11:01;13.30;99.90
14122;DHT22;7139;48.114;11.442;2022-09-02T07:13:28;13.30;99.90
14122;DHT22;7139;48.114;11.442;2022-09-02T07:15:55;13.30;99.90
14122;DHT22;7139;48.114;11.442;2022-09-02T07:18:22;13.30;99.90
14122;DHT22;7139;48.114;11.442;2022-09-02T07:20:48;13.40;99.90
14122;DHT22;7139;48.114;11.442;2022-09-02T07:23:17;13.50;99.90
14122;DHT22;7139;48.114;11.442;2022-09-02T07:25:45;13.50;99.90
14122;DHT22;7139;48.114;11.442;2022-09-02T07:28:11;13.60;99.90
14122;DHT22;7139;48.114;11.442;2022-09-02T07:30:40;13.60;99.90
14122;DHT22;7139;48.114;11.442;2022-09-02T07:33:07;13.60;99.90
14122;DHT22;7139;48.114;11.442;2022-09-02T07:35:34;13.70;99.90
14122;DHT22;7139;48.114;11.442;2022-09-02T07:38:01;13.10;99.90
14122;DHT22;7139;48.114;11.442;2022-09-02T07:40:30;14.00;99.90
14122;DHT22;7139;48.114;11.442;2022-09-02T07:42:57;14.10;99.90
14122;DHT22;7139;48.114;11.442;2022-09-02T07:45:24;14.00;99.90
14122;DHT22;7139;48.114;11.442;2022-09-02T07:47:51;14.10;99.90
14122;DHT22;7139;48.114;11.442;2022-09-02T07:50:18;14.30;99.90
14122;DHT22;7139;48.114;11.442;2022-09-02T07:52:45;14.50;99.90
14122;DHT22;7139;48.114;11.442;2022-09-02T07:55:13;14.50;99.90
14122;DHT22;7139;48.114;11.442;2022-09-02T07:57:41;14.60;99.90
14122;DHT22;7139;48.114;11.442;2022-09-02T08:00:09;14.50;99.90
14122;DHT22;7139;48.114;11.442;2022-09-02T08:02:38;14.90;99.90
14122;DHT22;7139;48.114;11.442;2022-09-02T08:05:05;15.20;99.90
14122;DHT22;7139;48.114;11.442;2022-09-02T08:07:33;15.30;99.90
14122;DHT22;7139;48.114;11.442;2022-09-02T08:10:00;15.30;99.90
14122;DHT22;7139;48.114;11.442;2022-09-02T08:12:28;15.50;99.90
14122;DHT22;7139;48.114;11.442;2022-09-02T08:14:56;15.70;99.90
14122;DHT22;7139;48.114;11.442;2022-09-02T08:17:24;15.90;99.90
14122;DHT22;7139;48.114;11.442;2022-09-02T08:19:51;16.20;99.90
14122;DHT22;7139;48.114;11.442;2022-09-02T08:22:18;16.40;99.90
14122;DHT22;7139;48.114;11.442;2022-09-02T08:24:45;16.60;99.90
14122;DHT22;7139;48.114;11.442;2022-09-02T08:27:11;16.90;99.90
14122;DHT22;7139;48.114;11.442;2022-09-02T08:29:38;17.20;99.90
14122;DHT22;7139;48.114;11.442;2022-09-02T08:32:06;17.40;99.90
14122;DHT22;7139;48.114;11.442;2022-09-02T08:34:33;17.70;99.90
14122;DHT22;7139;48.114;11.442;2022-09-02T08:37:00;17.90;99.90
14122;DHT22;7139;48.114;11.442;2022-09-02T08:39:27;18.10;99.90
14122;DHT22;7139;48.114;11.442;2022-09-02T08:42:04;18.40;99.90
14122;DHT22;7139;48.114;11.442;2022-09-02T08:44:36;18.60;99.90
14122;DHT22;7139;48.114;11.442;2022-09-02T08:47:05;18.80;99.90
14122;DHT22;7139;48.114;11.442;2022-09-02T08:49:39;18.90;99.90
14122;DHT22;7139;48.114;11.442;2022-09-02T08:52:07;19.10;99.90
14122;DHT22;7139;48.114;11.442;2022-09-02T08:54:47;19.30;99.90
14122;DHT22;7139;48.114;11.442;2022-09-02T08:57:16;19.50;99.90
14122;DHT22;7139;48.114;11.442;2022-09-02T08:59:42;19.50;98.90
14122;DHT22;7139;48.114;11.442;2022-09-02T09:02:16;19.50;98.30
14122;DHT22;7139;48.114;11.442;2022-09-02T09:05:01;19.60;97.50
14122;DHT22;7139;48.114;11.442;2022-09-02T09:07:35;19.70;96.80
14122;DHT22;7139;48.114;11.442;2022-09-02T09:10:10;19.80;97.70
14122;DHT22;7139;48.114;11.442;2022-09-02T09:13:00;20.00;95.10
14122;DHT22;7139;48.114;11.442;2022-09-02T09:15:35;20.00;95.60
14122;DHT22;7139;48.114;11.442;2022-09-02T09:18:06;20.10;96.30
14122;DHT22;7139;48.114;11.442;2022-09-02T09:20:38;20.20;95.20
14122;DHT22;7139;48.114;11.442;2022-09-02T09:23:14;20.40;94.90
14122;DHT22;7139;48.114;11.442;2022-09-02T09:25:45;20.60;94.80
14122;DHT22;7139;48.114;11.442;2022-09-02T09:28:13;20.70;95.40
14122;DHT22;7139;48.114;11.442;2022-09-02T09:30:40;20.90;94.30
14122;DHT22;7139;48.114;11.442;2022-09-02T09:33:07;20.90;94.50
14122;DHT22;7139;48.114;11.442;2022-09-02T09:35:47;21.00;94.00
14122;DHT22;7139;48.114;11.442;2022-09-02T09:38:14;21.10;93.80
14122;DHT22;7139;48.114;11.442;2022-09-02T09:40:41;21.10;93.40
14122;DHT22;7139;48.114;11.442;2022-09-02T09:43:12;21.30;94.20
14122;DHT22;7139;48.114;11.442;2022-09-02T09:45:40;21.30;92.70
14122;DHT22;7139;48.114;11.442;2022-09-02T09:48:20;21.40;92.90
14122;DHT22;7139;48.114;11.442;2022-09-02T09:51:15;21.50;92.40
14122;DHT22;7139;48.114;11.442;2022-09-02T09:53:42;21.60;91.70
14122;DHT22;7139;48.114;11.442;2022-09-02T09:56:29;21.70;92.40
14122;DHT22;7139;48.114;11.442;2022-09-02T09:58:59;21.80;92.20
14122;DHT22;7139;48.114;11.442;2022-09-02T10:01:28;21.80;91.90
14122;DHT22;7139;48.114;11.442;2022-09-02T10:03:59;21.80;91.80
14122;DHT22;7139;48.114;11.442;2022-09-02T10:06:40;22.00;92.60
14122;DHT22;7139;48.114;11.442;2022-09-02T10:09:28;22.10;91.50
14122;DHT22;7139;48.114;11.442;2022-09-02T10:11:57;22.10;91.70
14122;DHT22;7139;48.114;11.442;2022-09-02T10:14:33;22.20;90.80
14122;DHT22;7139;48.114;11.442;2022-09-02T10:17:10;22.30;92.20
14122;DHT22;7139;48.114;11.442;2022-09-02T10:19:46;22.40;90.40
14122;DHT22;7139;48.114;11.442;2022-09-02T10:22:43;22.50;91.80
14122;DHT22;7139;48.114;11.442;2022-09-02T10:25:22;22.50;90.90
14122;DHT22;7139;48.114;11.442;2022-09-02T10:27:57;22.60;90.00
14122;DHT22;7139;48.114;11.442;2022-09-02T10:30:31;22.60;89.80
14122;DHT22;7139;48.114;11.442;2022-09-02T10:33:14;22.70;90.00
14122;DHT22;7139;48.114;11.442;2022-09-02T10:35:46;22.70;87.80
14122;DHT22;7139;48.114;11.442;2022-09-02T10:38:31;22.90;89.00
14122;DHT22;7139;48.114;11.442;2022-09-02T10:41:05;23.00;88.00
14122;DHT22;7139;48.114;11.442;2022-09-02T10:43:53;23.00;87.00
14122;DHT22;7139;48.114;11.442;2022-09-02T10:46:21;22.90;87.10
14122;DHT22;7139;48.114;11.442;2022-09-02T10:48:56;22.90;87.70
14122;DHT22;7139;48.114;11.442;2022-09-02T10:51:34;23.00;89.30
14122;DHT22;7139;48.114;11.442;2022-09-02T10:54:17;22.90;87.00
14122;DHT22;7139;48.114;11.442;2022-09-02T10:56:52;23.00;86.20
14122;DHT22;7139;48.114;11.442;2022-09-02T10:59:25;23.00;83.80
14122;DHT22;7139;48.114;11.442;2022-09-02T11:01:58;23.00;83.10
14122;DHT22;7139;48.114;11.442;2022-09-02T11:04:33;23.10;86.90
14122;DHT22;7139;48.114;11.442;2022-09-02T11:07:03;23.20;85.80
14122;DHT22;7139;48.114;11.442;2022-09-02T11:09:36;23.30;84.10
14122;DHT22;7139;48.114;11.442;2022-09-02T11:12:06;23.30;83.90
14122;DHT22;7139;48.114;11.442;2022-09-02T11:14:42;23.40;83.40
14122;DHT22;7139;48.114;11.442;2022-09-02T11:17:18;23.40;83.80
14122;DHT22;7139;48.114;11.442;2022-09-02T11:19:50;23.50;81.40
14122;DHT22;7139;48.114;11.442;2022-09-02T11:22:21;23.60;82.40
14122;DHT22;7139;48.114;11.442;2022-09-02T11:24:55;23.60;81.70
14122;DHT22;7139;48.114;11.442;2022-09-02T11:27:30;23.60;82.00
14122;DHT22;7139;48.114;11.442;2022-09-02T11:30:02;23.70;83.60
14122;DHT22;7139;48.114;11.442;2022-09-02T11:32:36;23.60;81.00
14122;DHT22;7139;48.114;11.442;2022-09-02T11:35:07;23.60;82.80
14122;DHT22;7139;48.114;11.442;2022-09-02T11:37:39;23.70;82.70
14122;DHT22;7139;48.114;11.442;2022-09-02T11:40:11;23.90;84.00
14122;DHT22;7139;48.114;11.442;2022-09-02T11:43:00;23.90;80.30
14122;DHT22;7139;48.114;11.442;2022-09-02T11:45:51;23.80;81.20
14122;DHT22;7139;48.114;11.442;2022-09-02T11:51:43;24.00;81.90
14122;DHT22;7139;48.114;11.442;2022-09-02T11:54:15;24.00;77.90
14122;DHT22;7139;48.114;11.442;2022-09-02T11:56:47;23.90;79.80
14122;DHT22;7139;48.114;11.442;2022-09-02T11:59:22;23.90;81.70
14122;DHT22;7139;48.114;11.442;2022-09-02T12:01:50;23.90;77.40
14122;DHT22;7139;48.114;11.442;2022-09-02T12:04:19;24.00;82.00
14122;DHT22;7139;48.114;11.442;2022-09-02T12:07:21;24.00;80.60
14122;DHT22;7139;48.114;11.442;2022-09-02T12:09:49;24.20;80.40
14122;DHT22;7139;48.114;11.442;2022-09-02T12:15:22;24.30;77.10
14122;DHT22;7139;48.114;11.442;2022-09-02T12:18:24;24.10;77.00
14122;DHT22;7139;48.114;11.442;2022-09-02T12:21:05;24.10;76.70
14122;DHT22;7139;48.114;11.442;2022-09-02T12:27:10;24.30;80.60
14122;DHT22;7139;48.114;11.442;2022-09-02T12:29:44;24.30;76.80
14122;DHT22;7139;48.114;11.442;2022-09-02T12:32:12;24.20;76.00
14122;DHT22;7139;48.114;11.442;2022-09-02T12:35:09;24.30;78.70
14122;DHT22;7139;48.114;11.442;2022-09-02T12:37:50;24.30;78.00
14122;DHT22;7139;48.114;11.442;2022-09-02T12:40:33;24.20;76.40
14122;DHT22;7139;48.114;11.442;2022-09-02T12:43:05;24.20;78.30
14122;DHT22;7139;48.114;11.442;2022-09-02T12:45:43;24.20;79.30
14122;DHT22;7139;48.114;11.442;2022-09-02T12:48:16;24.10;77.40
14122;DHT22;7139;48.114;11.442;2022-09-02T12:50:52;24.10;79.70
14122;DHT22;7139;48.114;11.442;2022-09-02T12:53:32;24.10;77.20
14122;DHT22;7139;48.114;11.442;2022-09-02T12:56:01;24.20;78.30
14122;DHT22;7139;48.114;11.442;2022-09-02T12:58:33;24.10;77.60
14122;DHT22;7139;48.114;11.442;2022-09-02T13:01:08;24.10;77.90
14122;DHT22;7139;48.114;11.442;2022-09-02T13:04:13;24.10;76.40
14122;DHT22;7139;48.114;11.442;2022-09-02T13:07:01;24.10;77.00
14122;DHT22;7139;48.114;11.442;2022-09-02T13:09:42;24.10;78.60
14122;DHT22;7139;48.114;11.442;2022-09-02T13:12:33;24.10;80.10
14122;DHT22;7139;48.114;11.442;2022-09-02T13:15:18;23.90;77.40
14122;DHT22;7139;48.114;11.442;2022-09-02T13:21:26;24.00;78.50
14122;DHT22;7139;48.114;11.442;2022-09-02T13:24:15;23.90;77.40
14122;DHT22;7139;48.114;11.442;2022-09-02T13:26:58;24.00;81.50
14122;DHT22;7139;48.114;11.442;2022-09-02T13:29:53;23.90;78.50
14122;DHT22;7139;48.114;11.442;2022-09-02T13:32:22;23.80;77.80
14122;DHT22;7139;48.114;11.442;2022-09-02T13:34:51;23.80;78.80
14122;DHT22;7139;48.114;11.442;2022-09-02T13:37:29;23.80;77.50
14122;DHT22;7139;48.114;11.442;2022-09-02T13:39:57;23.80;76.50
14122;DHT22;7139;48.114;11.442;2022-09-02T13:42:25;23.60;78.70
14122;DHT22;7139;48.114;11.442;2022-09-02T13:45:07;23.70;78.10
14122;DHT22;7139;48.114;11.442;2022-09-02T13:47:34;23.60;78.50
14122;DHT22;7139;48.114;11.442;2022-09-02T13:50:02;23.50;80.10
14122;DHT22;7139;48.114;11.442;2022-09-02T13:52:32;23.40;78.80
14122;DHT22;7139;48.114;11.442;2022-09-02T13:55:03;23.60;79.30
14122;DHT22;7139;48.114;11.442;2022-09-02T13:57:31;23.60;77.70
14122;DHT22;7139;48.114;11.442;2022-09-02T13:59:57;23.50;77.20
14122;DHT22;7139;48.114;11.442;2022-09-02T14:02:26;23.40;79.70
14122;DHT22;7139;48.114;11.442;2022-09-02T14:04:56;23.40;79.60
14122;DHT22;7139;48.114;11.442;2022-09-02T14:07:29;23.30;82.20
14122;DHT22;7139;48.114;11.442;2022-09-02T14:10:00;23.30;80.30
14122;DHT22;7139;48.114;11.442;2022-09-02T14:12:32;23.30;81.30
14122;DHT22;7139;48.114;11.442;2022-09-02T14:14:59;23.20;80.50
14122;DHT22;7139;48.114;11.442;2022-09-02T14:17:27;23.10;79.20
14122;DHT22;7139;48.114;11.442;2022-09-02T14:20:16;23.10;81.10
14122;DHT22;7139;48.114;11.442;2022-09-02T14:22:50;23.20;82.10
14122;DHT22;7139;48.114;11.442;2022-09-02T14:25:19;23.20;82.80
14122;DHT22;7139;48.114;11.442;2022-09-02T14:27:50;23.30;80.80
14122;DHT22;7139;48.114;11.442;2022-09-02T14:30:28;23.30;81.70
14122;DHT22;7139;48.114;11.442;2022-09-02T14:33:22;23.30;80.40
14122;DHT22;7139;48.114;11.442;2022-09-02T14:35:57;23.20;79.60
14122;DHT22;7139;48.114;11.442;2022-09-02T14:38:26;23.30;81.20
14122;DHT22;7139;48.114;11.442;2022-09-02T14:41:04;23.20;81.10
14122;DHT22;7139;48.114;11.442;2022-09-02T14:43:40;23.20;79.40
14122;DHT22;7139;48.114;11.442;2022-09-02T14:46:14;23.20;79.70
14122;DHT22;7139;48.114;11.442;2022-09-02T14:48:42;23.20;79.20
14122;DHT22;7139;48.114;11.442;2022-09-02T14:51:09;23.20;80.80
14122;DHT22;7139;48.114;11.442;2022-09-02T14:53:36;23.20;82.70
14122;DHT22;7139;48.114;11.442;2022-09-02T14:56:05;23.10;81.70
14122;DHT22;7139;48.114;11.442;2022-09-02T14:58:32;23.10;80.80
14122;DHT22;7139;48.114;11.442;2022-09-02T15:01:00;23.10;83.20
14122;DHT22;7139;48.114;11.442;2022-09-02T15:03:28;23.00;79.90
14122;DHT22;7139;48.114;11.442;2022-09-02T15:05:55;22.90;80.20
14122;DHT22;7139;48.114;11.442;2022-09-02T15:08:22;22.90;82.00
14122;DHT22;7139;48.114;11.442;2022-09-02T15:10:48;23.00;80.80
14122;DHT22;7139;48.114;11.442;2022-09-02T15:13:24;23.00;81.60
14122;DHT22;7139;48.114;11.442;2022-09-02T15:15:52;23.10;81.70
14122;DHT22;7139;48.114;11.442;2022-09-02T15:18:19;23.00;83.50
14122;DHT22;7139;48.114;11.442;2022-09-02T15:20:46;23.00;82.60
14122;DHT22;7139;48.114;11.442;2022-09-02T15:23:13;23.00;80.70
14122;DHT22;7139;48.114;11.442;2022-09-02T15:25:40;23.00;80.80
14122;DHT22;7139;48.114;11.442;2022-09-02T15:28:07;23.00;79.10
14122;DHT22;7139;48.114;11.442;2022-09-02T15:30:36;23.00;77.90
14122;DHT22;7139;48.114;11.442;2022-09-02T15:33:05;23.10;80.40
14122;DHT22;7139;48.114;11.442;2022-09-02T15:35:32;23.10;79.20
14122;DHT22;7139;48.114;11.442;2022-09-02T15:37:59;23.20;83.00
14122;DHT22;7139;48.114;11.442;2022-09-02T15:40:27;23.10;80.80
14122;DHT22;7139;48.114;11.442;2022-09-02T15:42:54;23.10;80.90
14122;DHT22;7139;48.114;11.442;2022-09-02T15:45:22;23.00;81.60
14122;DHT22;7139;48.114;11.442;2022-09-02T15:47:50;23.00;82.70
14122;DHT22;7139;48.114;11.442;2022-09-02T15:50:17;23.00;80.90
14122;DHT22;7139;48.114;11.442;2022-09-02T15:52:43;22.90;80.80
14122;DHT22;7139;48.114;11.442;2022-09-02T15:55:10;22.90;81.50
14122;DHT22;7139;48.114;11.442;2022-09-02T15:57:37;22.80;80.70
14122;DHT22;7139;48.114;11.442;2022-09-02T16:00:05;22.80;82.60
14122;DHT22;7139;48.114;11.442;2022-09-02T16:02:32;22.70;81.40
14122;DHT22;7139;48.114;11.442;2022-09-02T16:05:00;22.70;80.10